Time;durP1;ratioP1;P1;durP2;ratioP2;P2;SDS_P1;SDS_P2;PMS_P1;PMS_P2;Temp;Humidity;BMP_temperature;BMP_pressure;BME280_temperature;BME280_humidity;BME280_pressure;Samples;Min_cycle;Max_cycle;Signal;HPM_P1;HPM_P2
2023/08/18 00:01:50;;;;;;;0.20;0.20;;;;;;;;;;6244693;22;20100;-86
2023/08/18 00:04:16;;;;;;;0.20;0.20;;;;;;;;;;6220132;22;20076;-86
2023/08/18 00:06:42;;;;;;;0.13;0.13;;;;;;;;;;6220481;22;20374;-84
2023/08/18 00:09:08;;;;;;;0.20;0.20;;;;;;;;;;6245555;22;20051;-86
2023/08/18 00:11:34;;;;;;;0.10;0.10;;;;;;;;;;6219685;22;20056;-88
2023/08/18 00:14:00;;;;;;;0.20;0.20;;;;;;;;;;6220151;22;20024;-88
2023/08/18 00:16:26;;;;;;;0.20;0.20;;;;;;;;;;6220010;22;20016;-87
2023/08/18 00:18:52;;;;;;;0.10;0.10;;;;;;;;;;6245217;22;20119;-87
2023/08/18 00:21:18;;;;;;;0.20;0.20;;;;;;;;;;6219837;22;20047;-86
2023/08/18 00:23:44;;;;;;;0.20;0.20;;;;;;;;;;6220175;22;20016;-86
2023/08/18 00:26:11;;;;;;;0.15;0.15;;;;;;;;;;6220082;22;20026;-86
2023/08/18 00:28:37;;;;;;;0.10;0.10;;;;;;;;;;6219972;22;20020;-87
2023/08/18 00:31:03;;;;;;;0.15;0.15;;;;;;;;;;6220042;22;20020;-87
2023/08/18 00:33:29;;;;;;;0.10;0.10;;;;;;;;;;6219694;22;20376;-87
2023/08/18 00:35:55;;;;;;;0.17;0.17;;;;;;;;;;6220117;22;20098;-87
2023/08/18 00:38:22;;;;;;;0.10;0.10;;;;;;;;;;6219990;22;20020;-85
2023/08/18 00:40:48;;;;;;;0.10;0.10;;;;;;;;;;6220081;22;20410;-87
2023/08/18 00:43:15;;;;;;;0.10;0.10;;;;;;;;;;6219602;22;20100;-85
2023/08/18 00:45:41;;;;;;;0.10;0.10;;;;;;;;;;6244904;22;20016;-87
2023/08/18 00:48:08;;;;;;;0.30;0.30;;;;;;;;;;6219697;22;20022;-86
2023/08/18 00:50:34;;;;;;;0.10;0.10;;;;;;;;;;6219808;22;20379;-86
2023/08/18 00:53:00;;;;;;;0.20;0.20;;;;;;;;;;6219462;22;20454;-86
2023/08/18 00:55:46;;;;;;;0.10;0.10;;;;;;;;;;6219848;22;20468;-86
2023/08/18 00:58:12;;;;;;;0.30;0.30;;;;;;;;;;6219671;22;20015;-85
2023/08/18 01:00:39;;;;;;;0.20;0.20;;;;;;;;;;6219941;22;20442;-85
2023/08/18 01:03:06;;;;;;;0.20;0.20;;;;;;;;;;6219367;22;20034;-88
2023/08/18 01:05:32;;;;;;;0.20;0.20;;;;;;;;;;6219768;22;20020;-87
2023/08/18 01:08:00;;;;;;;0.20;0.20;;;;;;;;;;6219762;22;20020;-86
2023/08/18 01:10:27;;;;;;;0.20;0.20;;;;;;;;;;6244161;22;20016;-86
2023/08/18 01:13:14;;;;;;;0.20;0.20;;;;;;;;;;6192715;22;20509;-86
2023/08/18 01:15:42;;;;;;;0.30;0.30;;;;;;;;;;6219627;22;20520;-86
2023/08/18 01:18:10;;;;;;;0.10;0.10;;;;;;;;;;6219639;22;20066;-85
2023/08/18 01:20:36;;;;;;;0.20;0.20;;;;;;;;;;6219522;22;20018;-85
2023/08/18 01:23:03;;;;;;;0.20;0.20;;;;;;;;;;6219038;22;20012;-86
2023/08/18 01:25:30;;;;;;;0.30;0.30;;;;;;;;;;6219772;22;20019;-86
2023/08/18 01:27:57;;;;;;;0.30;0.30;;;;;;;;;;6244999;22;20015;-91
2023/08/18 01:30:27;;;;;;;0.20;0.20;;;;;;;;;;6195019;22;20098;-86
2023/08/18 01:33:13;;;;;;;0.10;0.10;;;;;;;;;;6219572;22;20016;-87
2023/08/18 01:35:40;;;;;;;0.17;0.17;;;;;;;;;;6245014;22;20020;-85
2023/08/18 01:38:06;;;;;;;0.20;0.20;;;;;;;;;;6219612;22;20019;-87
2023/08/18 01:40:34;;;;;;;0.25;0.25;;;;;;;;;;6219884;22;20399;-87
2023/08/18 01:43:00;;;;;;;0.20;0.20;;;;;;;;;;6219438;22;20015;-84
2023/08/18 01:45:26;;;;;;;0.20;0.20;;;;;;;;;;6219472;22;20012;-86
2023/08/18 01:47:52;;;;;;;0.10;0.10;;;;;;;;;;6244868;22;20454;-85
2023/08/18 01:50:18;;;;;;;0.10;0.10;;;;;;;;;;6219440;22;20016;-87
2023/08/18 01:52:44;;;;;;;0.10;0.10;;;;;;;;;;6244542;22;20016;-86
2023/08/18 01:55:10;;;;;;;0.20;0.20;;;;;;;;;;6219774;22;20450;-86
2023/08/18 01:57:36;;;;;;;0.20;0.20;;;;;;;;;;6219540;22;20084;-86
2023/08/18 02:00:04;;;;;;;0.20;0.20;;;;;;;;;;6219592;22;20096;-85
2023/08/18 02:02:30;;;;;;;0.30;0.30;;;;;;;;;;6219086;22;20072;-84
2023/08/18 02:04:56;;;;;;;0.20;0.20;;;;;;;;;;6219622;22;20043;-87
2023/08/18 02:07:22;;;;;;;0.20;0.20;;;;;;;;;;6219543;22;20067;-88
2023/08/18 02:09:48;;;;;;;0.20;0.20;;;;;;;;;;6219603;22;20012;-86
2023/08/18 02:12:14;;;;;;;0.10;0.10;;;;;;;;;;6244567;22;20016;-86
2023/08/18 02:14:57;;;;;;;0.20;0.20;;;;;;;;;;6244766;22;20012;-87
2023/08/18 02:17:29;;;;;;;0.20;0.20;;;;;;;;;;6220369;22;20036;-86
2023/08/18 02:19:58;;;;;;;0.20;0.20;;;;;;;;;;6220781;22;20015;-86
2023/08/18 02:22:27;;;;;;;0.20;0.20;;;;;;;;;;6220517;22;20347;-86
2023/08/18 02:24:53;;;;;;;0.10;0.10;;;;;;;;;;6220775;22;20018;-86
2023/08/18 02:27:19;;;;;;;0.10;0.10;;;;;;;;;;6220776;22;20012;-86
2023/08/18 02:29:45;;;;;;;0.10;0.10;;;;;;;;;;6220594;22;20095;-85
2023/08/18 02:32:11;;;;;;;0.20;0.20;;;;;;;;;;6220380;22;20030;-87
2023/08/18 02:34:38;;;;;;;0.10;0.10;;;;;;;;;;6220675;22;20065;-87
2023/08/18 02:37:07;;;;;;;0.30;0.30;;;;;;;;;;6221328;22;20011;-86
2023/08/18 02:39:33;;;;;;;0.30;0.30;;;;;;;;;;6220630;22;20099;-86
2023/08/18 02:42:00;;;;;;;0.20;0.20;;;;;;;;;;6245644;22;20012;-86
2023/08/18 02:44:26;;;;;;;0.20;0.20;;;;;;;;;;6220790;22;20012;-87
2023/08/18 02:46:52;;;;;;;0.30;0.30;;;;;;;;;;6220669;22;20046;-86
2023/08/18 02:49:18;;;;;;;0.20;0.20;;;;;;;;;;6220908;22;20012;-86
2023/08/18 02:51:44;;;;;;;0.10;0.10;;;;;;;;;;6220373;22;20472;-87
2023/08/18 02:54:10;;;;;;;0.10;0.10;;;;;;;;;;6220570;22;20051;-87
2023/08/18 02:56:37;;;;;;;0.30;0.30;;;;;;;;;;6220986;22;20386;-86
2023/08/18 02:59:03;;;;;;;0.10;0.10;;;;;;;;;;6220512;22;20465;-85
2023/08/18 03:01:29;;;;;;;0.20;0.20;;;;;;;;;;6216912;22;20016;-87
2023/08/18 03:03:55;;;;;;;0.20;0.20;;;;;;;;;;6220630;22;20019;-87
2023/08/18 03:06:22;;;;;;;0.20;0.20;;;;;;;;;;6220475;22;20022;-86
2023/08/18 03:08:50;;;;;;;0.20;0.20;;;;;;;;;;6245658;22;20022;-86
2023/08/18 03:11:16;;;;;;;0.10;0.10;;;;;;;;;;6220021;22;20022;-87
2023/08/18 03:13:42;;;;;;;0.20;0.20;;;;;;;;;;6220456;22;20020;-85
2023/08/18 03:16:08;;;;;;;0.10;0.10;;;;;;;;;;6220497;22;20023;-87
2023/08/18 03:18:34;;;;;;;0.10;0.10;;;;;;;;;;6245646;22;20016;-86
2023/08/18 03:21:01;;;;;;;0.20;0.20;;;;;;;;;;6245679;22;20020;-87
2023/08/18 03:23:28;;;;;;;0.20;0.20;;;;;;;;;;6220058;22;20015;-86
2023/08/18 03:26:04;;;;;;;0.10;0.10;;;;;;;;;;6220678;22;20016;-85
2023/08/18 03:28:32;;;;;;;0.10;0.10;;;;;;;;;;6219858;22;20020;-86
2023/08/18 03:31:02;;;;;;;0.17;0.17;;;;;;;;;;6220484;22;20015;-84
2023/08/18 03:33:28;;;;;;;0.10;0.10;;;;;;;;;;6220215;22;20020;-86
2023/08/18 03:35:54;;;;;;;0.10;0.10;;;;;;;;;;6220422;22;20016;-89
2023/08/18 03:38:21;;;;;;;0.10;0.10;;;;;;;;;;6220274;22;20020;-86
2023/08/18 03:40:49;;;;;;;0.28;0.28;;;;;;;;;;6245536;22;20032;-87
2023/08/18 03:43:16;;;;;;;0.10;0.10;;;;;;;;;;6245225;22;20019;-87
2023/08/18 03:45:42;;;;;;;0.25;0.25;;;;;;;;;;6220351;22;20015;-86
2023/08/18 03:48:08;;;;;;;0.20;0.20;;;;;;;;;;6271650;22;20494;-87
2023/08/18 03:50:35;;;;;;;0.10;0.10;;;;;;;;;;6220219;22;20023;-85
2023/08/18 03:53:02;;;;;;;0.13;0.13;;;;;;;;;;6220004;22;20507;-86
2023/08/18 03:55:29;;;;;;;0.20;0.20;;;;;;;;;;6220432;22;20031;-85
2023/08/18 03:57:58;;;;;;;0.10;0.10;;;;;;;;;;6220722;22;20483;-86
2023/08/18 04:00:25;;;;;;;0.30;0.30;;;;;;;;;;6220445;22;20375;-88
2023/08/18 04:02:51;;;;;;;0.30;0.30;;;;;;;;;;6219067;22;20035;-87
2023/08/18 04:05:21;;;;;;;0.20;0.20;;;;;;;;;;6220605;22;20071;-85
2023/08/18 04:07:47;;;;;;;0.20;0.20;;;;;;;;;;6245308;22;20071;-86
2023/08/18 04:10:16;;;;;;;0.10;0.10;;;;;;;;;;6245607;22;20027;-86
2023/08/18 04:12:42;;;;;;;0.20;0.20;;;;;;;;;;6219857;22;20039;-86
2023/08/18 04:15:09;;;;;;;0.30;0.30;;;;;;;;;;6220144;22;20022;-85
2023/08/18 04:17:36;;;;;;;0.10;0.10;;;;;;;;;;6245037;22;20454;-86
2023/08/18 04:20:04;;;;;;;0.10;0.10;;;;;;;;;;6219787;22;20069;-86
2023/08/18 04:22:31;;;;;;;0.10;0.10;;;;;;;;;;6244813;22;20446;-86
2023/08/18 04:24:57;;;;;;;0.15;0.15;;;;;;;;;;6245333;22;20012;-87
2023/08/18 04:27:23;;;;;;;0.17;0.17;;;;;;;;;;6220393;22;20015;-88
2023/08/18 04:29:49;;;;;;;0.20;0.20;;;;;;;;;;6220395;22;20019;-87
2023/08/18 04:32:15;;;;;;;0.10;0.10;;;;;;;;;;6220078;22;20011;-85
2023/08/18 04:34:54;;;;;;;0.10;0.10;;;;;;;;;;6220307;22;20647;-86
2023/08/18 04:37:21;;;;;;;0.20;0.20;;;;;;;;;;6220341;22;20453;-86
2023/08/18 04:39:47;;;;;;;0.25;0.25;;;;;;;;;;6220154;22;20368;-86
2023/08/18 04:42:13;;;;;;;0.10;0.10;;;;;;;;;;6220009;22;20012;-87
2023/08/18 04:44:39;;;;;;;0.10;0.10;;;;;;;;;;6220666;22;20072;-86
2023/08/18 04:47:06;;;;;;;0.10;0.10;;;;;;;;;;6220069;22;20065;-86
2023/08/18 04:49:32;;;;;;;0.10;0.10;;;;;;;;;;6220147;22;20027;-86
2023/08/18 04:51:58;;;;;;;0.15;0.15;;;;;;;;;;6245555;22;20020;-85
2023/08/18 04:54:24;;;;;;;0.20;0.20;;;;;;;;;;6222004;22;20094;-88
2023/08/18 04:56:56;;;;;;;0.20;0.20;;;;;;;;;;6221508;22;20030;-88
2023/08/18 04:59:23;;;;;;;0.10;0.10;;;;;;;;;;6221186;22;20016;-88
2023/08/18 05:01:51;;;;;;;0.20;0.20;;;;;;;;;;6218372;22;20012;-88
2023/08/18 05:04:17;;;;;;;0.20;0.20;;;;;;;;;;6191169;22;20017;-88
2023/08/18 05:06:43;;;;;;;0.10;0.10;;;;;;;;;;6191260;22;20087;-90
2023/08/18 05:09:11;;;;;;;0.20;0.20;;;;;;;;;;6216503;23;20404;-90
2023/08/18 05:11:38;;;;;;;0.10;0.10;;;;;;;;;;6191387;22;20027;-89
2023/08/18 05:14:08;;;;;;;0.25;0.25;;;;;;;;;;6191343;22;20099;-88
2023/08/18 05:16:34;;;;;;;0.17;0.17;;;;;;;;;;6192030;22;20024;-89
2023/08/18 05:19:00;;;;;;;0.10;0.10;;;;;;;;;;6191927;22;20103;-89
2023/08/18 05:21:26;;;;;;;0.20;0.20;;;;;;;;;;6219250;23;20045;-91
2023/08/18 05:23:52;;;;;;;0.10;0.10;;;;;;;;;;6195705;22;20012;-90
2023/08/18 05:26:19;;;;;;;0.20;0.20;;;;;;;;;;6195560;22;20455;-89
2023/08/18 05:28:47;;;;;;;0.20;0.20;;;;;;;;;;6196293;22;20048;-91
2023/08/18 05:31:15;;;;;;;0.10;0.10;;;;;;;;;;6171602;23;20347;-91
2023/08/18 05:33:41;;;;;;;0.20;0.20;;;;;;;;;;6194731;23;20095;-92
2023/08/18 05:36:13;;;;;;;0.10;0.10;;;;;;;;;;6196087;22;20027;-91
2023/08/18 05:38:40;;;;;;;0.10;0.10;;;;;;;;;;6196539;22;20447;-91
2023/08/18 05:41:08;;;;;;;0.10;0.10;;;;;;;;;;6196237;22;20080;-91
2023/08/18 05:43:37;;;;;;;0.10;0.10;;;;;;;;;;6195203;22;20372;-94
2023/08/18 05:46:04;;;;;;;0.20;0.20;;;;;;;;;;6220401;23;20347;-92
2023/08/18 05:48:32;;;;;;;0.15;0.15;;;;;;;;;;6196679;22;20095;-90
2023/08/18 05:50:58;;;;;;;0.10;0.10;;;;;;;;;;6195919;23;20097;-91
2023/08/18 05:53:24;;;;;;;0.20;0.20;;;;;;;;;;6220424;23;20098;-91
2023/08/18 05:55:52;;;;;;;0.10;0.10;;;;;;;;;;6195981;22;20031;-93
2023/08/18 05:58:19;;;;;;;0.10;0.10;;;;;;;;;;6195775;23;20033;-91
2023/08/18 06:00:47;;;;;;;0.15;0.15;;;;;;;;;;6195478;22;20017;-91
2023/08/18 06:03:13;;;;;;;0.20;0.20;;;;;;;;;;6235993;22;20089;-91
2023/08/18 06:05:40;;;;;;;0.17;0.17;;;;;;;;;;6195475;22;20076;-93
2023/08/18 06:08:06;;;;;;;0.20;0.20;;;;;;;;;;6195621;23;20091;-92
2023/08/18 06:10:36;;;;;;;0.20;0.20;;;;;;;;;;6197917;23;20016;-91
2023/08/18 06:13:02;;;;;;;0.20;0.20;;;;;;;;;;6170960;23;20012;-90
2023/08/18 06:15:30;;;;;;;0.10;0.10;;;;;;;;;;6194614;23;20137;-91
2023/08/18 06:17:56;;;;;;;0.25;0.25;;;;;;;;;;6194866;23;20024;-90
2023/08/18 06:20:23;;;;;;;0.10;0.10;;;;;;;;;;6196850;22;20016;-92
2023/08/18 06:22:51;;;;;;;0.17;0.17;;;;;;;;;;6197376;23;20016;-91
2023/08/18 06:25:19;;;;;;;0.20;0.20;;;;;;;;;;6196897;23;20320;-92
2023/08/18 06:27:45;;;;;;;0.10;0.10;;;;;;;;;;6195727;23;20109;-91
2023/08/18 06:30:11;;;;;;;0.20;0.20;;;;;;;;;;6195190;23;20024;-93
2023/08/18 06:32:38;;;;;;;0.20;0.20;;;;;;;;;;6195473;23;20020;-88
2023/08/18 06:35:28;;;;;;;0.10;0.10;;;;;;;;;;6221269;23;20016;-92
2023/08/18 06:38:12;;;;;;;0.20;0.20;;;;;;;;;;6196860;23;20043;-92
2023/08/18 06:40:38;;;;;;;0.17;0.17;;;;;;;;;;6219528;23;20048;-91
2023/08/18 06:43:07;;;;;;;0.25;0.25;;;;;;;;;;6195126;23;20063;-90
2023/08/18 06:45:47;;;;;;;0.20;0.20;;;;;;;;;;6195422;22;20023;-90
2023/08/18 06:48:15;;;;;;;0.10;0.10;;;;;;;;;;6193988;22;20020;-90
2023/08/18 06:50:41;;;;;;;0.20;0.20;;;;;;;;;;6220837;23;20072;-89
2023/08/18 06:53:08;;;;;;;0.10;0.10;;;;;;;;;;6195785;23;20073;-91
2023/08/18 06:55:34;;;;;;;0.10;0.10;;;;;;;;;;6170576;23;20027;-91
2023/08/18 06:58:00;;;;;;;0.10;0.10;;;;;;;;;;6195206;23;20039;-91
2023/08/18 07:00:26;;;;;;;0.20;0.20;;;;;;;;;;6219849;23;20455;-92
2023/08/18 07:02:58;;;;;;;0.15;0.15;;;;;;;;;;6201090;22;20080;-91
2023/08/18 07:05:26;;;;;;;0.13;0.13;;;;;;;;;;6247068;22;20012;-90
2023/08/18 07:07:53;;;;;;;0.10;0.10;;;;;;;;;;6222181;22;20350;-92
2023/08/18 07:10:20;;;;;;;0.10;0.10;;;;;;;;;;6222079;22;20063;-92
2023/08/18 07:12:46;;;;;;;0.00;0.00;;;;;;;;;;6248230;22;20071;-91
2023/08/18 07:15:12;;;;;;;0.10;0.10;;;;;;;;;;6249080;22;20020;-92
2023/08/18 07:17:39;;;;;;;0.13;0.13;;;;;;;;;;6249527;22;20016;-93
2023/08/18 07:20:10;;;;;;;0.10;0.10;;;;;;;;;;6248196;22;20020;-91
2023/08/18 07:22:36;;;;;;;0.10;0.10;;;;;;;;;;6223603;23;20051;-90
2023/08/18 07:25:04;;;;;;;0.10;0.10;;;;;;;;;;6221629;22;20023;-90
2023/08/18 07:27:55;;;;;;;0.20;0.20;;;;;;;;;;6198582;22;20012;-92
2023/08/18 07:30:23;;;;;;;0.10;0.10;;;;;;;;;;6248750;23;20386;-91
2023/08/18 07:32:58;;;;;;;0.20;0.20;;;;;;;;;;6249157;22;20016;-92
2023/08/18 07:35:24;;;;;;;0.10;0.10;;;;;;;;;;6202153;22;20044;-93
2023/08/18 07:37:50;;;;;;;0.20;0.20;;;;;;;;;;6228623;22;20043;-92
2023/08/18 07:40:17;;;;;;;0.10;0.10;;;;;;;;;;6228461;22;20016;-93
2023/08/18 07:42:46;;;;;;;0.20;0.20;;;;;;;;;;6227923;22;20016;-91
2023/08/18 07:45:13;;;;;;;0.40;0.40;;;;;;;;;;6252505;22;20020;-92
2023/08/18 07:47:40;;;;;;;0.22;0.22;;;;;;;;;;6254883;22;20031;-93
2023/08/18 07:50:10;;;;;;;0.10;0.10;;;;;;;;;;6230476;22;20013;-95
2023/08/18 07:52:36;;;;;;;0.20;0.20;;;;;;;;;;6229191;22;20023;-93
2023/08/18 07:55:07;;;;;;;0.15;0.15;;;;;;;;;;6253391;22;20319;-93
2023/08/18 07:57:33;;;;;;;0.10;0.10;;;;;;;;;;6228913;22;20012;-93
2023/08/18 08:00:06;;;;;;;0.10;0.10;;;;;;;;;;6230741;22;20019;-92
2023/08/18 08:02:36;;;;;;;0.20;0.20;;;;;;;;;;6234786;22;20462;-93
2023/08/18 08:05:06;;;;;;;0.20;0.20;;;;;;;;;;6235882;22;20587;-91
2023/08/18 08:07:33;;;;;;;0.20;0.20;;;;;;;;;;6261873;22;20022;-94
2023/08/18 08:10:03;;;;;;;0.22;0.22;;;;;;;;;;6261841;22;20063;-94
2023/08/18 08:12:34;;;;;;;0.20;0.20;;;;;;;;;;6262636;22;20064;-94
2023/08/18 08:15:07;;;;;;;0.20;0.20;;;;;;;;;;6237644;22;20016;-93
2023/08/18 08:17:33;;;;;;;0.13;0.13;;;;;;;;;;6237168;22;20023;-93
2023/08/18 08:20:16;;;;;;;0.17;0.17;;;;;;;;;;6237370;22;20016;-93
2023/08/18 08:22:46;;;;;;;0.20;0.20;;;;;;;;;;6259967;22;20426;-95
2023/08/18 08:25:12;;;;;;;0.30;0.30;;;;;;;;;;6235710;22;20015;-94
2023/08/18 08:27:40;;;;;;;0.20;0.20;;;;;;;;;;6238126;22;20016;-94
2023/08/18 08:30:08;;;;;;;0.10;0.10;;;;;;;;;;6235807;22;20022;-94
2023/08/18 08:32:35;;;;;;;0.20;0.20;;;;;;;;;;6235659;22;20023;-93
2023/08/18 08:35:01;;;;;;;0.20;0.20;;;;;;;;;;6235798;22;20045;-94
2023/08/18 08:37:28;;;;;;;0.22;0.22;;;;;;;;;;6234484;22;20023;-93
2023/08/18 08:39:54;;;;;;;0.15;0.15;;;;;;;;;;6236104;22;20096;-93
2023/08/18 08:42:29;;;;;;;0.00;0.00;;;;;;;;;;6235103;22;20007;-93
2023/08/18 08:44:55;;;;;;;0.20;0.20;;;;;;;;;;6236532;22;20010;-93
2023/08/18 08:47:22;;;;;;;0.10;0.10;;;;;;;;;;6237262;22;20015;-96
2023/08/18 08:49:50;;;;;;;0.10;0.10;;;;;;;;;;6213004;22;20012;-93
2023/08/18 08:52:31;;;;;;;0.20;0.20;;;;;;;;;;6236647;22;20027;-95
2023/08/18 08:55:02;;;;;;;0.25;0.25;;;;;;;;;;6237680;22;20044;-95
2023/08/18 08:57:28;;;;;;;0.10;0.10;;;;;;;;;;6237293;22;20020;-91
2023/08/18 08:59:55;;;;;;;0.30;0.30;;;;;;;;;;6237993;22;20050;-93
2023/08/18 09:02:21;;;;;;;0.10;0.10;;;;;;;;;;6236815;22;20078;-94
2023/08/18 09:04:51;;;;;;;0.08;0.08;;;;;;;;;;6257735;22;20019;-95
2023/08/18 09:07:19;;;;;;;0.10;0.10;;;;;;;;;;6233938;22;20064;-96
2023/08/18 09:09:46;;;;;;;0.10;0.10;;;;;;;;;;6233106;22;20020;-95
2023/08/18 09:12:12;;;;;;;0.20;0.20;;;;;;;;;;6233299;22;20024;-96
2023/08/18 09:14:43;;;;;;;0.10;0.10;;;;;;;;;;6258894;22;20044;-95
2023/08/18 09:17:10;;;;;;;0.10;0.10;;;;;;;;;;6232366;22;20042;-94
2023/08/18 09:19:36;;;;;;;0.20;0.20;;;;;;;;;;6205202;22;20027;-96
2023/08/18 09:22:05;;;;;;;0.20;0.20;;;;;;;;;;6231082;22;20096;-94
2023/08/18 09:24:34;;;;;;;0.17;0.17;;;;;;;;;;6233176;22;20024;-92
2023/08/18 09:27:08;;;;;;;0.10;0.10;;;;;;;;;;6232184;22;20056;-93
2023/08/18 09:29:38;;;;;;;0.10;0.10;;;;;;;;;;6260616;22;20016;-95
2023/08/18 09:32:11;;;;;;;0.20;0.20;;;;;;;;;;6233850;22;20022;-93
2023/08/18 09:34:37;;;;;;;0.10;0.10;;;;;;;;;;6234287;22;20016;-92
2023/08/18 09:37:04;;;;;;;0.20;0.20;;;;;;;;;;6232241;22;20012;-95
2023/08/18 09:39:31;;;;;;;0.10;0.10;;;;;;;;;;6232879;22;20076;-96
2023/08/18 09:41:57;;;;;;;0.20;0.20;;;;;;;;;;6206507;22;20016;-94
2023/08/18 09:44:23;;;;;;;0.17;0.17;;;;;;;;;;6256775;22;20016;-95
2023/08/18 09:46:51;;;;;;;0.10;0.10;;;;;;;;;;6232101;22;20037;-95
2023/08/18 09:49:19;;;;;;;0.03;0.03;;;;;;;;;;6231990;22;20015;-94
2023/08/18 09:51:46;;;;;;;0.30;0.30;;;;;;;;;;6206049;22;20031;-95
2023/08/18 09:54:13;;;;;;;0.20;0.20;;;;;;;;;;6231460;22;20342;-96
2023/08/18 09:56:43;;;;;;;0.00;0.00;;;;;;;;;;6229673;22;20028;-93
2023/08/18 09:59:31;;;;;;;0.10;0.10;;;;;;;;;;6232970;22;20020;-96
2023/08/18 10:01:57;;;;;;;0.20;0.20;;;;;;;;;;6257497;23;20023;-94
2023/08/18 10:04:25;;;;;;;0.10;0.10;;;;;;;;;;6232952;22;20039;-95
2023/08/18 10:06:52;;;;;;;0.20;0.20;;;;;;;;;;6236084;23;20027;-95
2023/08/18 10:09:21;;;;;;;0.20;0.20;;;;;;;;;;6232333;22;20016;-95
2023/08/18 10:11:51;;;;;;;0.13;0.13;;;;;;;;;;6258601;22;20020;-96
2023/08/18 10:14:18;;;;;;;0.13;0.13;;;;;;;;;;6232208;22;20020;-96
2023/08/18 10:16:45;;;;;;;0.10;0.10;;;;;;;;;;6229023;23;20384;-94
2023/08/18 10:19:13;;;;;;;0.10;0.10;;;;;;;;;;6257956;22;20023;-94
2023/08/18 10:21:40;;;;;;;0.10;0.10;;;;;;;;;;6231560;22;20016;-93
2023/08/18 10:24:06;;;;;;;0.10;0.10;;;;;;;;;;6230524;22;20346;-92
2023/08/18 10:26:42;;;;;;;0.10;0.10;;;;;;;;;;6230631;22;20057;-92
2023/08/18 10:29:15;;;;;;;0.10;0.10;;;;;;;;;;6257286;22;20027;-93
2023/08/18 10:31:46;;;;;;;0.20;0.20;;;;;;;;;;6230712;22;20020;-95
2023/08/18 10:34:33;;;;;;;0.10;0.10;;;;;;;;;;6230857;22;20023;-95
2023/08/18 10:37:05;;;;;;;0.13;0.13;;;;;;;;;;6230184;22;20016;-94
2023/08/18 10:39:40;;;;;;;0.10;0.10;;;;;;;;;;6231806;23;20020;-95
2023/08/18 10:42:15;;;;;;;0.10;0.10;;;;;;;;;;6232594;22;20016;-93
2023/08/18 10:44:58;;;;;;;0.20;0.20;;;;;;;;;;6233860;22;20020;-92
2023/08/18 10:47:31;;;;;;;0.20;0.20;;;;;;;;;;6232460;22;20016;-93
2023/08/18 10:50:00;;;;;;;0.10;0.10;;;;;;;;;;6232237;22;20016;-93
2023/08/18 10:52:31;;;;;;;0.20;0.20;;;;;;;;;;6230479;22;20091;-94
2023/08/18 10:55:00;;;;;;;0.10;0.10;;;;;;;;;;6258152;22;20101;-93
2023/08/18 10:57:28;;;;;;;0.20;0.20;;;;;;;;;;6229695;22;20012;-95
2023/08/18 10:59:54;;;;;;;0.00;0.00;;;;;;;;;;6258192;23;20016;-96
2023/08/18 11:02:21;;;;;;;0.10;0.10;;;;;;;;;;6231162;22;20016;-96
2023/08/18 11:04:47;;;;;;;0.10;0.10;;;;;;;;;;6242940;22;20069;-95
2023/08/18 11:07:14;;;;;;;0.10;0.10;;;;;;;;;;6206821;22;20073;-96
2023/08/18 11:09:42;;;;;;;0.20;0.20;;;;;;;;;;6230052;22;20102;-94
2023/08/18 11:12:11;;;;;;;0.20;0.20;;;;;;;;;;6230200;22;20098;-94
2023/08/18 11:14:38;;;;;;;0.20;0.20;;;;;;;;;;6231499;22;20016;-96
2023/08/18 11:17:04;;;;;;;0.10;0.10;;;;;;;;;;6254928;22;20004;-96
2023/08/18 11:19:31;;;;;;;0.10;0.10;;;;;;;;;;6230481;22;20016;-95
2023/08/18 11:21:57;;;;;;;0.05;0.05;;;;;;;;;;6230669;22;20023;-93
2023/08/18 11:24:25;;;;;;;0.05;0.05;;;;;;;;;;6230469;22;20012;-93
2023/08/18 11:26:53;;;;;;;0.10;0.10;;;;;;;;;;6231409;22;20045;-95
2023/08/18 11:29:19;;;;;;;0.00;0.00;;;;;;;;;;6228520;22;20056;-93
2023/08/18 11:31:48;;;;;;;0.05;0.05;;;;;;;;;;6254021;22;20020;-92
2023/08/18 11:34:16;;;;;;;0.10;0.10;;;;;;;;;;6230978;22;20020;-93
2023/08/18 11:36:44;;;;;;;0.10;0.10;;;;;;;;;;6231596;22;20027;-94
2023/08/18 11:39:46;;;;;;;0.08;0.08;;;;;;;;;;6230988;23;20026;-95
2023/08/18 11:42:15;;;;;;;0.10;0.10;;;;;;;;;;6229483;23;20013;-96
2023/08/18 11:44:44;;;;;;;0.08;0.08;;;;;;;;;;6229513;22;20020;-94
2023/08/18 11:47:12;;;;;;;0.10;0.10;;;;;;;;;;6228919;22;20059;-94
2023/08/18 11:49:39;;;;;;;0.10;0.10;;;;;;;;;;6228716;22;20042;-90
2023/08/18 11:52:13;;;;;;;0.03;0.03;;;;;;;;;;6229518;23;20023;-94
2023/08/18 11:54:42;;;;;;;0.10;0.10;;;;;;;;;;6229270;22;20020;-93
2023/08/18 11:57:09;;;;;;;0.10;0.10;;;;;;;;;;6229758;22;20016;-94
2023/08/18 11:59:35;;;;;;;0.10;0.10;;;;;;;;;;6228491;22;20019;-95
2023/08/18 12:02:04;;;;;;;0.10;0.10;;;;;;;;;;6228276;22;20020;-94
2023/08/18 12:04:34;;;;;;;0.10;0.10;;;;;;;;;;6252947;22;20074;-93
2023/08/18 12:07:00;;;;;;;0.10;0.10;;;;;;;;;;6229205;22;20092;-94
2023/08/18 12:09:27;;;;;;;0.20;0.20;;;;;;;;;;6228386;22;20058;-93
2023/08/18 12:12:15;;;;;;;0.10;0.10;;;;;;;;;;6253402;22;20020;-95
2023/08/18 12:14:42;;;;;;;0.00;0.00;;;;;;;;;;6229315;23;20021;-94
2023/08/18 12:17:11;;;;;;;0.00;0.00;;;;;;;;;;6228796;22;20481;-94
2023/08/18 12:19:37;;;;;;;0.10;0.10;;;;;;;;;;6228623;22;20024;-94
2023/08/18 12:22:10;;;;;;;0.10;0.10;;;;;;;;;;6227846;22;20047;-93
2023/08/18 12:24:36;;;;;;;0.10;0.10;;;;;;;;;;6226933;23;20016;-92
2023/08/18 12:27:23;;;;;;;0.10;0.10;;;;;;;;;;6226667;22;20012;-93
2023/08/18 12:29:50;;;;;;;0.20;0.20;;;;;;;;;;6226778;23;20020;-94
2023/08/18 12:32:38;;;;;;;0.10;0.10;;;;;;;;;;6228381;23;20072;-93
2023/08/18 12:35:08;;;;;;;0.00;0.00;;;;;;;;;;6228200;22;20065;-95
2023/08/18 12:38:07;;;;;;;0.10;0.10;;;;;;;;;;6225654;23;20259;-93
2023/08/18 12:40:33;;;;;;;0.08;0.08;;;;;;;;;;6226032;23;20024;-94
2023/08/18 12:43:00;;;;;;;0.08;0.08;;;;;;;;;;6201458;22;20024;-94
2023/08/18 12:45:36;;;;;;;0.15;0.15;;;;;;;;;;6227032;22;20030;-93
2023/08/18 12:48:04;;;;;;;0.08;0.08;;;;;;;;;;6229207;23;20517;-94
2023/08/18 12:51:08;;;;;;;0.17;0.17;;;;;;;;;;6202052;23;20020;-94
2023/08/18 12:53:39;;;;;;;0.20;0.20;;;;;;;;;;6227504;23;20027;-96
2023/08/18 12:56:10;;;;;;;0.03;0.03;;;;;;;;;;6227772;23;20027;-92
2023/08/18 12:58:37;;;;;;;0.10;0.10;;;;;;;;;;6227340;23;20023;-94
2023/08/18 13:01:03;;;;;;;0.00;0.00;;;;;;;;;;6227420;22;20046;-96
2023/08/18 13:03:31;;;;;;;0.10;0.10;;;;;;;;;;6255175;22;20016;-95
2023/08/18 13:05:59;;;;;;;0.10;0.10;;;;;;;;;;6234479;22;20067;-93
2023/08/18 13:11:33;;;;;;;0.10;0.10;;;;;;;;;;6257471;22;20063;-95
2023/08/18 13:14:03;;;;;;;0.10;0.10;;;;;;;;;;6231667;22;20019;-94
2023/08/18 13:16:52;;;;;;;0.10;0.10;;;;;;;;;;6206520;22;20026;-94
2023/08/18 13:19:19;;;;;;;0.10;0.10;;;;;;;;;;6231518;22;20012;-94
2023/08/18 13:21:45;;;;;;;0.10;0.10;;;;;;;;;;6230819;22;20012;-93
2023/08/18 13:24:11;;;;;;;0.00;0.00;;;;;;;;;;6230040;22;20019;-93
2023/08/18 13:26:39;;;;;;;0.10;0.10;;;;;;;;;;6228862;22;20011;-95
2023/08/18 13:29:08;;;;;;;0.00;0.00;;;;;;;;;;6229678;22;20047;-95
2023/08/18 13:31:34;;;;;;;0.10;0.10;;;;;;;;;;6230968;22;20328;-93
2023/08/18 13:34:01;;;;;;;0.00;0.00;;;;;;;;;;6230733;22;20022;-94
2023/08/18 13:36:40;;;;;;;0.00;0.00;;;;;;;;;;6228659;22;20031;-90
2023/08/18 13:39:07;;;;;;;0.00;0.00;;;;;;;;;;6225833;22;20016;-91
2023/08/18 13:41:33;;;;;;;0.10;0.10;;;;;;;;;;6225407;22;20039;-89
2023/08/18 13:44:02;;;;;;;0.10;0.10;;;;;;;;;;6228916;22;20096;-92
2023/08/18 13:46:29;;;;;;;0.10;0.10;;;;;;;;;;6227981;22;20019;-93
2023/08/18 13:48:55;;;;;;;0.00;0.00;;;;;;;;;;6227640;22;20045;-92
2023/08/18 13:51:21;;;;;;;0.10;0.10;;;;;;;;;;6226498;22;20048;-91
2023/08/18 13:53:47;;;;;;;0.00;0.00;;;;;;;;;;6252309;22;20022;-91
2023/08/18 13:56:14;;;;;;;0.05;0.05;;;;;;;;;;6232233;22;20462;-93
2023/08/18 13:58:40;;;;;;;0.00;0.00;;;;;;;;;;6233211;22;20052;-94
2023/08/18 14:01:06;;;;;;;0.08;0.08;;;;;;;;;;6232793;22;20016;-93
2023/08/18 14:03:32;;;;;;;0.10;0.10;;;;;;;;;;6232843;22;20016;-95
2023/08/18 14:06:03;;;;;;;0.03;0.03;;;;;;;;;;6232731;22;20107;-96
2023/08/18 14:08:32;;;;;;;0.10;0.10;;;;;;;;;;6236503;22;20024;-96
2023/08/18 14:11:01;;;;;;;0.00;0.00;;;;;;;;;;6237632;22;20043;-93
2023/08/18 14:13:29;;;;;;;0.10;0.10;;;;;;;;;;6238995;22;20027;-94
2023/08/18 14:15:55;;;;;;;0.10;0.10;;;;;;;;;;6238564;22;20020;-95
2023/08/18 14:18:26;;;;;;;0.03;0.03;;;;;;;;;;6240896;22;20076;-94
2023/08/18 14:21:00;;;;;;;0.10;0.10;;;;;;;;;;6241391;22;20015;-94
2023/08/18 14:23:28;;;;;;;0.10;0.10;;;;;;;;;;6236306;22;20522;-91
2023/08/18 14:26:08;;;;;;;0.00;0.00;;;;;;;;;;6233114;22;20040;-96
2023/08/18 14:28:37;;;;;;;0.10;0.10;;;;;;;;;;6237702;22;20102;-96
2023/08/18 14:31:10;;;;;;;0.10;0.10;;;;;;;;;;6237667;22;20024;-93
2023/08/18 14:33:40;;;;;;;0.00;0.00;;;;;;;;;;6237757;22;20020;-92
2023/08/18 14:36:09;;;;;;;0.00;0.00;;;;;;;;;;6237997;22;20020;-93
2023/08/18 14:38:36;;;;;;;0.10;0.10;;;;;;;;;;6214868;22;20044;-92
2023/08/18 14:41:31;;;;;;;0.10;0.10;;;;;;;;;;6240116;22;20321;-95
2023/08/18 14:43:59;;;;;;;;;;;;;;;;;;6239080;22;20012;-93
2023/08/18 14:46:52;;;;;;;0.13;0.13;;;;;;;;;;6237310;22;19911;-94
2023/08/18 14:49:21;;;;;;;0.00;0.00;;;;;;;;;;6212305;22;20026;-92
2023/08/18 14:51:47;;;;;;;0.10;0.10;;;;;;;;;;6232410;22;20058;-91
2023/08/18 14:54:14;;;;;;;0.00;0.00;;;;;;;;;;6231594;22;20103;-91
2023/08/18 14:56:40;;;;;;;0.10;0.10;;;;;;;;;;6232270;22;20072;-93